Time;durP1;ratioP1;P1;durP2;ratioP2;P2;SDS_P1;SDS_P2;PMS_P1;PMS_P2;Temp;Humidity;BMP_temperature;BMP_pressure;BME280_temperature;BME280_humidity;BME280_pressure;Samples;Min_cycle;Max_cycle;Signal;HPM_P1;HPM_P2
2023/03/22 05:05:35;;;;;;;3.95;3.42;;;6.70;99.90;;;;;;5260288;23;20409;-70
2023/03/22 05:08:00;;;;;;;4.45;3.65;;;6.70;99.90;;;;;;4956717;28;20187;-70
2023/03/22 05:10:26;;;;;;;3.73;3.20;;;6.70;99.90;;;;;;4956314;28;20187;-69
2023/03/22 05:12:51;;;;;;;3.00;2.70;;;6.70;99.90;;;;;;4956306;28;20228;-69
2023/03/22 05:15:17;;;;;;;4.00;3.70;;;6.70;99.90;;;;;;4956377;28;20213;-69
2023/03/22 05:17:42;;;;;;;3.60;3.30;;;6.70;99.90;;;;;;4956806;28;20240;-69
2023/03/22 05:20:09;;;;;;;4.23;3.30;;;6.70;99.90;;;;;;4956432;28;20265;-68
2023/03/22 05:22:39;;;;;;;3.00;2.80;;;6.70;99.90;;;;;;4955549;28;20263;-69
2023/03/22 05:25:06;;;;;;;3.78;3.17;;;6.80;99.90;;;;;;4955492;28;20222;-69
2023/03/22 05:27:33;;;;;;;2.85;2.65;;;6.80;99.90;;;;;;4956156;28;20179;-69
2023/03/22 05:30:00;;;;;;;4.22;3.55;;;6.80;99.90;;;;;;4956419;28;20573;-68
2023/03/22 05:32:28;;;;;;;3.25;2.95;;;6.90;99.90;;;;;;4956514;28;20186;-69
2023/03/22 05:34:54;;;;;;;5.03;3.83;;;6.90;99.90;;;;;;4954592;28;20206;-69
2023/03/22 05:37:21;;;;;;;3.88;3.58;;;7.00;99.90;;;;;;4955972;28;20179;-68
2023/03/22 05:39:46;;;;;;;3.25;2.95;;;7.00;99.90;;;;;;4956131;28;20193;-69
2023/03/22 05:42:12;;;;;;;3.70;3.40;;;7.10;99.90;;;;;;4956110;28;20174;-69
2023/03/22 05:44:38;;;;;;;4.10;3.13;;;7.20;99.90;;;;;;4955466;28;20203;-69
2023/03/22 05:47:05;;;;;;;3.30;3.00;;;7.30;99.90;;;;;;4956024;28;20176;-70
2023/03/22 05:49:31;;;;;;;4.47;3.08;;;7.40;99.90;;;;;;4955609;28;20176;-69
2023/03/22 05:51:57;;;;;;;3.67;3.23;;;7.50;99.90;;;;;;4954458;28;20651;-69
2023/03/22 05:54:22;;;;;;;3.67;2.87;;;7.60;99.90;;;;;;4936368;29;20207;-70
2023/03/22 05:56:48;;;;;;;3.53;3.20;;;7.70;99.90;;;;;;4935435;29;20726;-69
2023/03/22 05:59:13;;;;;;;3.80;3.50;;;7.80;99.90;;;;;;4945544;29;20172;-68
2023/03/22 06:01:39;;;;;;;2.93;2.70;;;8.00;99.90;;;;;;4954655;28;20177;-70
2023/03/22 06:04:05;;;;;;;3.58;2.63;;;8.10;99.90;;;;;;4955417;28;20205;-69
2023/03/22 06:06:31;;;;;;;6.73;2.83;;;8.30;99.90;;;;;;4954996;28;20262;-69
2023/03/22 06:08:57;;;;;;;4.00;3.40;;;8.50;99.90;;;;;;4955604;28;20256;-70
2023/03/22 06:11:22;;;;;;;2.70;2.50;;;8.70;99.90;;;;;;4955691;28;20200;-70
2023/03/22 06:13:48;;;;;;;4.77;2.73;;;8.90;99.90;;;;;;4954991;28;20173;-71
2023/03/22 06:16:14;;;;;;;3.47;3.00;;;9.20;99.90;;;;;;4955803;28;20596;-70
2023/03/22 06:18:40;;;;;;;3.05;2.50;;;9.60;99.90;;;;;;4955777;28;20180;-70
2023/03/22 06:21:06;;;;;;;3.50;3.20;;;9.90;99.90;;;;;;4954470;28;20193;-70
2023/03/22 06:23:31;;;;;;;5.63;3.37;;;10.40;99.90;;;;;;4955193;28;20208;-72
2023/03/22 06:25:57;;;;;;;4.70;2.20;;;10.90;99.90;;;;;;4954893;28;20212;-70
2023/03/22 06:28:23;;;;;;;3.20;2.90;;;11.30;99.90;;;;;;4955213;28;20173;-71
2023/03/22 06:30:48;;;;;;;2.80;2.60;;;11.80;99.90;;;;;;4955392;28;20176;-74
2023/03/22 06:33:14;;;;;;;2.80;2.60;;;12.30;99.90;;;;;;4952045;28;20189;-73
2023/03/22 06:35:39;;;;;;;4.80;4.30;;;12.80;99.90;;;;;;4947279;29;20278;-74
2023/03/22 06:38:05;;;;;;;3.80;2.80;;;13.30;99.90;;;;;;4934645;29;20182;-73
2023/03/22 06:40:31;;;;;;;3.00;2.73;;;13.80;99.90;;;;;;4951101;29;20242;-75
2023/03/22 06:42:58;;;;;;;3.00;2.80;;;14.10;99.90;;;;;;4955112;28;20232;-75
2023/03/22 06:45:24;;;;;;;4.30;3.20;;;14.20;99.90;;;;;;4954665;28;20937;-72
2023/03/22 06:47:50;;;;;;;3.53;2.80;;;14.30;99.90;;;;;;4955147;28;20417;-75
2023/03/22 06:50:16;;;;;;;3.50;3.20;;;14.50;99.90;;;;;;4955216;28;20233;-73
2023/03/22 06:52:41;;;;;;;3.40;3.10;;;14.80;99.90;;;;;;4950340;28;20175;-76
2023/03/22 06:55:07;;;;;;;2.97;2.77;;;15.00;99.90;;;;;;4948940;29;20988;-74
2023/03/22 06:57:33;;;;;;;2.63;2.43;;;15.10;99.90;;;;;;4954942;28;20187;-74
2023/03/22 06:59:58;;;;;;;3.03;2.70;;;15.30;99.90;;;;;;4955190;28;20426;-73
2023/03/22 07:02:24;;;;;;;2.60;2.40;;;15.50;99.70;;;;;;4955195;28;20654;-73
2023/03/22 07:04:50;;;;;;;4.20;3.03;;;15.80;99.60;;;;;;4953179;28;20219;-73
2023/03/22 07:07:15;;;;;;;2.53;2.20;;;16.20;99.60;;;;;;4954811;28;20188;-68
2023/03/22 07:09:41;;;;;;;2.80;2.60;;;16.60;98.90;;;;;;4954816;28;20192;-73
2023/03/22 07:12:06;;;;;;;2.53;2.33;;;17.10;97.20;;;;;;4955025;28;20263;-73
2023/03/22 07:14:32;;;;;;;2.00;1.90;;;17.50;96.90;;;;;;4954971;28;20543;-74
2023/03/22 07:16:58;;;;;;;2.10;1.90;;;18.20;94.90;;;;;;4954804;28;20228;-73
2023/03/22 07:19:24;;;;;;;2.23;2.03;;;19.00;93.40;;;;;;4940122;28;20185;-73
2023/03/22 07:21:50;;;;;;;2.00;1.63;;;19.80;92.30;;;;;;4938227;29;20408;-73
2023/03/22 07:24:15;;;;;;;1.80;1.70;;;20.30;90.00;;;;;;4951908;29;20471;-73
2023/03/22 07:26:41;;;;;;;1.93;1.57;;;20.60;86.40;;;;;;4958459;29;20185;-74
2023/03/22 07:29:07;;;;;;;1.50;1.40;;;20.90;84.70;;;;;;4956750;28;20177;-63
2023/03/22 07:31:35;;;;;;;1.80;1.70;;;21.30;81.70;;;;;;4947253;28;20180;-73
2023/03/22 07:34:02;;;;;;;3.07;1.87;;;21.70;81.50;;;;;;4956141;29;20195;-75
2023/03/22 07:36:28;;;;;;;2.83;2.23;;;21.90;78.10;;;;;;4955245;28;20465;-77
2023/03/22 07:38:54;;;;;;;2.40;2.20;;;21.90;77.90;;;;;;4957186;28;20405;-74
2023/03/22 07:41:21;;;;;;;2.33;2.13;;;21.80;76.20;;;;;;4956597;29;20420;-73
2023/03/22 07:43:46;;;;;;;2.20;1.83;;;21.90;76.90;;;;;;4956544;28;20625;-71
2023/03/22 07:46:12;;;;;;;1.37;1.27;;;22.00;75.30;;;;;;4954974;28;20517;-73
2023/03/22 07:48:38;;;;;;;1.80;1.70;;;22.00;75.20;;;;;;4957140;28;20179;-74
2023/03/22 07:51:04;;;;;;;2.17;1.70;;;22.20;73.80;;;;;;4955706;28;20186;-76
2023/03/22 07:53:30;;;;;;;2.70;2.50;;;22.40;71.80;;;;;;4956799;28;20176;-74
2023/03/22 07:55:55;;;;;;;1.83;1.73;;;22.70;72.60;;;;;;4957086;28;20495;-74
2023/03/22 07:58:21;;;;;;;1.50;1.40;;;23.20;71.80;;;;;;4956712;28;20173;-72
2023/03/22 08:00:48;;;;;;;1.93;1.83;;;23.50;70.90;;;;;;4957106;28;20173;-74
2023/03/22 08:03:14;;;;;;;1.43;1.33;;;23.90;70.50;;;;;;4950606;28;20221;-74
2023/03/22 08:05:41;;;;;;;1.77;1.63;;;24.20;69.10;;;;;;4952810;29;20419;-73
2023/03/22 08:08:12;;;;;;;1.70;1.60;;;24.40;68.20;;;;;;4956327;28;20383;-73
2023/03/22 08:10:37;;;;;;;1.90;1.73;;;24.60;67.00;;;;;;4938929;29;20421;-73
2023/03/22 08:13:03;;;;;;;1.57;1.47;;;24.80;66.70;;;;;;4945415;28;20424;-71
2023/03/22 08:15:29;;;;;;;2.30;2.10;;;25.00;66.30;;;;;;4957705;28;20224;-72
2023/03/22 08:17:56;;;;;;;1.60;1.50;;;25.20;64.80;;;;;;4957891;28;20543;-73
2023/03/22 08:20:26;;;;;;;2.03;1.83;;;25.30;65.00;;;;;;4957459;28;20185;-73
2023/03/22 08:22:52;;;;;;;2.90;1.70;;;25.70;64.90;;;;;;4957102;28;20794;-67
2023/03/22 08:25:19;;;;;;;1.40;1.30;;;26.00;63.50;;;;;;4956164;29;20439;-77
2023/03/22 08:27:44;;;;;;;1.67;1.57;;;26.40;63.50;;;;;;4957067;28;20913;-74
2023/03/22 08:30:11;;;;;;;1.53;1.43;;;26.20;62.50;;;;;;4953216;28;20431;-75
2023/03/22 08:32:37;;;;;;;1.63;1.50;;;26.50;62.50;;;;;;4956239;28;20173;-72
2023/03/22 08:35:07;;;;;;;1.30;1.20;;;26.80;62.00;;;;;;4955639;28;20464;-68
2023/03/22 08:37:33;;;;;;;1.57;1.10;;;27.20;60.80;;;;;;4956567;28;20536;-69
2023/03/22 08:39:58;;;;;;;1.30;1.30;;;27.20;59.80;;;;;;4954285;28;20399;-69
2023/03/22 08:42:24;;;;;;;2.63;2.43;;;26.70;60.50;;;;;;4952987;28;20177;-68
2023/03/22 08:44:50;;;;;;;2.30;1.50;;;26.90;60.20;;;;;;4954794;28;20200;-69
2023/03/22 08:47:16;;;;;;;1.63;1.53;;;27.10;59.80;;;;;;4956835;28;20173;-69
2023/03/22 08:49:42;;;;;;;1.90;1.40;;;27.00;59.20;;;;;;4948502;28;20436;-70
2023/03/22 08:52:07;;;;;;;1.63;1.40;;;27.10;59.50;;;;;;4957173;28;20181;-69
2023/03/22 08:54:33;;;;;;;1.50;1.40;;;27.00;59.20;;;;;;4955946;28;20291;-68
2023/03/22 08:56:59;;;;;;;1.43;1.33;;;27.20;59.20;;;;;;4956979;28;20172;-70
2023/03/22 08:59:25;;;;;;;1.30;1.20;;;27.40;58.00;;;;;;4957121;28;20646;-69
2023/03/22 09:01:50;;;;;;;1.83;1.20;;;26.80;58.70;;;;;;4947507;28;20533;-69
2023/03/22 09:04:16;;;;;;;1.93;1.67;;;27.00;59.50;;;;;;4951431;29;20551;-73
2023/03/22 09:06:44;;;;;;;1.60;1.50;;;27.60;59.60;;;;;;4953988;28;20204;-72
2023/03/22 09:09:10;;;;;;;1.30;1.20;;;28.40;58.50;;;;;;4937752;29;20212;-70
2023/03/22 09:11:36;;;;;;;1.23;1.20;;;29.10;56.90;;;;;;4937566;29;20395;-65
2023/03/22 09:14:02;;;;;;;1.97;1.10;;;29.10;55.50;;;;;;4937075;29;20875;-66
2023/03/22 09:16:28;;;;;;;1.30;1.23;;;29.00;56.60;;;;;;4936190;29;20403;-69
2023/03/22 09:18:54;;;;;;;1.20;1.20;;;29.30;55.80;;;;;;4937868;29;20456;-71
2023/03/22 09:21:20;;;;;;;1.13;1.13;;;29.30;56.60;;;;;;4951311;28;20182;-73
2023/03/22 09:23:46;;;;;;;1.30;1.20;;;29.40;56.20;;;;;;4943656;29;20208;-74
2023/03/22 09:26:12;;;;;;;1.30;1.20;;;29.40;55.10;;;;;;4956711;28;20435;-73
2023/03/22 09:28:38;;;;;;;1.80;1.70;;;29.20;55.10;;;;;;4951062;28;20428;-73
2023/03/22 09:31:06;;;;;;;0.90;0.90;;;28.70;56.20;;;;;;4953797;28;20503;-74
2023/03/22 09:33:33;;;;;;;1.30;1.20;;;28.10;56.30;;;;;;4936818;29;20229;-76
2023/03/22 09:35:59;;;;;;;1.20;1.10;;;27.80;57.00;;;;;;4945738;29;20415;-74
2023/03/22 09:38:26;;;;;;;1.57;1.30;;;27.80;56.30;;;;;;4956284;28;20386;-70
2023/03/22 09:41:00;;;;;;;1.10;1.00;;;27.40;56.60;;;;;;4952483;28;20453;-75
2023/03/22 09:43:36;;;;;;;0.90;0.90;;;27.20;57.00;;;;;;4955012;28;20387;-73
2023/03/22 09:46:05;;;;;;;1.63;1.00;;;26.50;56.90;;;;;;4954579;28;20421;-74
2023/03/22 09:48:34;;;;;;;0.90;0.90;;;25.80;58.10;;;;;;4955955;28;20510;-73
2023/03/22 09:51:02;;;;;;;2.27;1.50;;;25.70;58.50;;;;;;4953320;28;20443;-68
2023/03/22 09:53:31;;;;;;;1.00;0.90;;;25.60;59.80;;;;;;4949519;28;20407;-66
2023/03/22 09:56:14;;;;;;;1.17;1.07;;;25.80;59.20;;;;;;4955028;28;20513;-66
2023/03/22 09:59:11;;;;;;;1.80;1.13;;;25.40;59.30;;;;;;4951045;29;20918;-69
2023/03/22 10:01:55;;;;;;;0.93;0.93;;;25.70;59.30;;;;;;4941526;29;20399;-69
2023/03/22 10:04:40;;;;;;;2.00;0.97;;;26.10;58.80;;;;;;4947805;29;20504;-67
2023/03/22 10:07:23;;;;;;;1.90;0.80;;;26.60;58.20;;;;;;4951091;29;20421;-71
2023/03/22 10:10:04;;;;;;;1.40;1.30;;;27.30;58.00;;;;;;4939206;28;20389;-70
2023/03/22 10:12:56;;;;;;;1.10;1.10;;;27.80;57.00;;;;;;4937013;29;20467;-66
2023/03/22 10:15:34;;;;;;;0.90;0.90;;;28.10;55.70;;;;;;4939769;29;20463;-69
2023/03/22 10:18:04;;;;;;;0.80;0.80;;;27.90;56.10;;;;;;4955101;28;20430;-69
2023/03/22 10:20:42;;;;;;;0.90;0.90;;;27.90;56.50;;;;;;4955809;28;20382;-71
2023/03/22 10:23:19;;;;;;;1.20;1.10;;;28.00;56.60;;;;;;4954963;28;20431;-70
2023/03/22 10:25:45;;;;;;;0.90;0.90;;;28.20;55.80;;;;;;4955544;28;20403;-66
2023/03/22 10:28:21;;;;;;;0.63;0.63;;;28.10;56.10;;;;;;4955438;28;20379;-68
2023/03/22 10:30:53;;;;;;;0.97;0.97;;;27.50;56.10;;;;;;4955207;28;20858;-71
2023/03/22 10:33:49;;;;;;;0.60;0.60;;;27.10;56.70;;;;;;4954960;28;20482;-70
2023/03/22 10:36:16;;;;;;;1.10;1.03;;;26.70;57.70;;;;;;4954264;28;20378;-72
2023/03/22 10:38:49;;;;;;;0.80;0.80;;;26.70;58.30;;;;;;4942030;29;20810;-70
2023/03/22 10:41:20;;;;;;;1.07;0.90;;;26.70;58.30;;;;;;4955329;28;20401;-70
2023/03/22 10:43:51;;;;;;;1.23;1.13;;;26.80;58.50;;;;;;4944076;28;20404;-72
2023/03/22 10:46:24;;;;;;;0.90;0.90;;;27.00;58.90;;;;;;4947227;29;20399;-70
2023/03/22 10:48:52;;;;;;;1.53;1.43;;;27.40;57.20;;;;;;4950651;28;20399;-70
2023/03/22 10:51:34;;;;;;;0.80;0.80;;;27.90;56.40;;;;;;4954391;28;20431;-72
2023/03/22 10:54:01;;;;;;;0.90;0.90;;;28.10;55.70;;;;;;4954226;28;21005;-71
2023/03/22 10:56:27;;;;;;;1.27;1.17;;;28.10;56.60;;;;;;4952108;28;20867;-69
2023/03/22 10:58:55;;;;;;;1.30;1.30;;;28.30;56.90;;;;;;4946699;29;20414;-71
2023/03/22 11:01:30;;;;;;;0.83;0.83;;;28.70;56.70;;;;;;4958785;29;20398;-71
2023/03/22 11:04:06;;;;;;;1.10;1.10;;;29.10;55.00;;;;;;4958351;28;20447;-71
2023/03/22 11:06:36;;;;;;;1.30;1.20;;;28.70;55.30;;;;;;4958921;28;20920;-69
2023/03/22 11:09:23;;;;;;;2.10;0.80;;;28.30;55.00;;;;;;4958809;28;20453;-72
2023/03/22 11:11:52;;;;;;;1.00;1.00;;;27.70;55.70;;;;;;4959092;28;20480;-72
2023/03/22 11:14:30;;;;;;;1.17;1.10;;;27.20;56.50;;;;;;4956614;28;20450;-72
2023/03/22 11:17:11;;;;;;;1.10;1.10;;;26.80;57.10;;;;;;4958940;29;20459;-70
2023/03/22 11:19:37;;;;;;;1.23;1.13;;;26.30;57.40;;;;;;4958539;28;20395;-73
2023/03/22 11:22:48;;;;;;;0.90;0.90;;;25.60;58.00;;;;;;4958681;28;20898;-71
2023/03/22 11:25:21;;;;;;;1.10;1.10;;;24.40;59.20;;;;;;4955910;29;22129;-72
2023/03/22 11:27:55;;;;;;;1.80;1.17;;;23.30;61.10;;;;;;4958472;28;20754;-73
2023/03/22 11:30:26;;;;;;;0.77;0.77;;;22.80;64.20;;;;;;4956871;29;20422;-73
2023/03/22 11:33:00;;;;;;;3.03;1.00;;;22.60;65.20;;;;;;4957040;29;20843;-74
2023/03/22 11:35:29;;;;;;;1.57;0.90;;;22.30;65.00;;;;;;4957457;28;20472;-73
2023/03/22 11:37:55;;;;;;;0.90;0.90;;;21.70;66.10;;;;;;4956264;28;20431;-71
2023/03/22 11:40:30;;;;;;;2.60;1.93;;;21.50;67.50;;;;;;4958536;28;20379;-72
2023/03/22 11:43:07;;;;;;;0.80;0.80;;;21.50;69.20;;;;;;4958251;28;20404;-71
2023/03/22 11:45:36;;;;;;;1.00;0.90;;;21.50;68.30;;;;;;4946613;28;20440;-72
2023/03/22 11:48:11;;;;;;;1.40;1.03;;;21.50;69.00;;;;;;4957384;29;20874;-72
2023/03/22 11:50:39;;;;;;;1.03;1.00;;;21.70;68.50;;;;;;4951922;29;20485;-68
2023/03/22 11:53:10;;;;;;;1.53;1.43;;;21.60;67.70;;;;;;4957537;28;20408;-64
2023/03/22 11:55:36;;;;;;;0.70;0.70;;;21.50;69.10;;;;;;4957498;28;20525;-65
2023/03/22 11:58:05;;;;;;;1.77;1.40;;;21.60;67.20;;;;;;4957938;28;20438;-67
2023/03/22 12:00:36;;;;;;;2.77;2.57;;;21.70;63.80;;;;;;4957829;28;20455;-69
2023/03/22 12:03:22;;;;;;;2.40;2.20;;;21.70;63.90;;;;;;4957635;28;20892;-71
2023/03/22 12:05:49;;;;;;;0.70;0.70;;;21.80;62.90;;;;;;4957742;28;20545;-76
2023/03/22 12:08:32;;;;;;;2.40;2.20;;;21.80;62.00;;;;;;4956018;28;20425;-72
2023/03/22 12:11:06;;;;;;;1.30;1.30;;;21.80;64.40;;;;;;4955859;29;20426;-72
2023/03/22 12:13:56;;;;;;;4.33;0.90;;;21.50;68.60;;;;;;4957155;28;20430;-67
2023/03/22 12:16:27;;;;;;;1.53;0.87;;;21.10;70.80;;;;;;4957630;28;20426;-66
2023/03/22 12:19:10;;;;;;;1.10;1.10;;;20.80;70.30;;;;;;4955055;28;20403;-73
2023/03/22 12:21:36;;;;;;;0.83;0.83;;;20.60;70.60;;;;;;4942260;29;20425;-72
2023/03/22 12:24:10;;;;;;;0.93;0.80;;;20.60;72.30;;;;;;4956252;28;20454;-73
2023/03/22 12:26:36;;;;;;;0.80;0.80;;;20.60;73.10;;;;;;4957192;28;20451;-72
2023/03/22 12:29:14;;;;;;;0.97;0.97;;;20.70;70.90;;;;;;4956128;28;20480;-71
2023/03/22 12:31:50;;;;;;;1.03;0.90;;;20.60;72.50;;;;;;4957311;28;20774;-73
2023/03/22 12:34:20;;;;;;;1.27;1.17;;;20.60;73.50;;;;;;4956884;28;20491;-74
2023/03/22 12:36:54;;;;;;;0.90;0.90;;;20.50;75.50;;;;;;4956681;28;20428;-72
2023/03/22 12:39:30;;;;;;;1.27;1.23;;;20.50;76.00;;;;;;4956997;28;20432;-75
2023/03/22 12:42:04;;;;;;;1.50;1.40;;;20.50;74.30;;;;;;4956713;28;20420;-74
2023/03/22 12:44:39;;;;;;;2.00;1.77;;;20.40;75.60;;;;;;4956007;29;20442;-72
2023/03/22 12:47:22;;;;;;;1.00;1.00;;;20.30;75.40;;;;;;4954963;28;20511;-73
2023/03/22 12:50:26;;;;;;;1.10;1.10;;;20.20;75.00;;;;;;4946373;29;20423;-72
2023/03/22 12:52:55;;;;;;;0.70;0.70;;;20.10;76.20;;;;;;4945450;28;20428;-73
2023/03/22 12:55:36;;;;;;;1.60;1.50;;;20.10;75.80;;;;;;4956805;28;20468;-72
2023/03/22 12:58:06;;;;;;;0.80;0.80;;;20.10;76.10;;;;;;4956744;28;20423;-72
2023/03/22 13:00:48;;;;;;;1.03;0.70;;;20.00;75.80;;;;;;4948096;29;20488;-73
2023/03/22 13:03:17;;;;;;;1.23;0.93;;;20.00;73.10;;;;;;4956258;28;20417;-72
2023/03/22 13:05:45;;;;;;;1.30;1.20;;;20.10;76.20;;;;;;4956401;28;20460;-72
2023/03/22 13:08:10;;;;;;;0.73;0.73;;;20.30;74.70;;;;;;4956876;28;20476;-73
2023/03/22 13:10:40;;;;;;;1.03;0.90;;;20.40;73.90;;;;;;4956387;28;20418;-72
2023/03/22 13:13:20;;;;;;;0.70;0.70;;;20.60;72.30;;;;;;4955328;28;20177;-71
2023/03/22 13:15:56;;;;;;;0.70;0.70;;;20.80;71.30;;;;;;4955131;28;20851;-71
2023/03/22 13:18:29;;;;;;;0.80;0.80;;;21.00;69.80;;;;;;4949165;29;20943;-73
2023/03/22 13:21:15;;;;;;;0.63;0.63;;;21.20;70.20;;;;;;4956130;28;20418;-72
2023/03/22 13:24:18;;;;;;;1.20;1.10;;;21.30;68.90;;;;;;4955179;28;20565;-71
2023/03/22 13:26:50;;;;;;;1.33;1.30;;;21.40;65.50;;;;;;4955739;28;20507;-72
2023/03/22 13:29:24;;;;;;;1.20;1.10;;;21.30;67.20;;;;;;4955617;28;20424;-73
2023/03/22 13:31:56;;;;;;;1.10;1.10;;;21.20;68.90;;;;;;4955692;28;20417;-72
2023/03/22 13:34:38;;;;;;;2.53;1.00;;;21.10;67.10;;;;;;4955599;28;21035;-73
2023/03/22 13:37:09;;;;;;;1.90;0.80;;;21.10;67.60;;;;;;4952767;29;20424;-73
2023/03/22 13:39:38;;;;;;;1.67;1.20;;;21.00;68.00;;;;;;4954845;28;20435;-73
2023/03/22 13:42:20;;;;;;;2.97;1.50;;;20.90;67.00;;;;;;4955749;28;20416;-72
2023/03/22 13:45:02;;;;;;;0.90;0.90;;;20.90;67.10;;;;;;4953974;28;20475;-73
2023/03/22 13:47:28;;;;;;;1.20;0.90;;;20.80;66.20;;;;;;4955755;28;20429;-72
2023/03/22 13:50:04;;;;;;;1.17;0.90;;;20.80;66.30;;;;;;4955589;28;20840;-72
2023/03/22 13:52:57;;;;;;;0.97;0.70;;;20.90;64.70;;;;;;4953691;28;20176;-72
2023/03/22 13:55:56;;;;;;;1.20;1.10;;;20.90;64.60;;;;;;4955366;28;20830;-73
2023/03/22 13:58:51;;;;;;;1.03;1.00;;;20.90;65.30;;;;;;4955391;28;20432;-73
2023/03/22 14:01:29;;;;;;;1.87;0.70;;;20.90;63.70;;;;;;4955691;28;20416;-71
2023/03/22 14:04:00;;;;;;;1.13;1.03;;;20.90;64.20;;;;;;4954664;29;20428;-73
2023/03/22 14:06:30;;;;;;;0.70;0.70;;;21.00;63.50;;;;;;4954230;28;20989;-72
2023/03/22 14:09:28;;;;;;;6.50;0.80;;;21.10;62.30;;;;;;4954286;28;20404;-72
2023/03/22 14:12:12;;;;;;;0.90;0.90;;;21.20;61.70;;;;;;4917900;29;20422;-72
2023/03/22 14:14:45;;;;;;;1.83;0.70;;;21.30;60.20;;;;;;4953223;29;20478;-73
2023/03/22 14:17:32;;;;;;;0.60;0.60;;;21.40;60.30;;;;;;4955437;28;20420;-73
2023/03/22 14:20:03;;;;;;;0.70;0.70;;;21.50;60.30;;;;;;4952876;29;20442;-72
2023/03/22 14:22:37;;;;;;;0.87;0.77;;;21.50;61.20;;;;;;4953870;28;20448;-72
2023/03/22 14:25:06;;;;;;;1.00;1.00;;;21.60;60.00;;;;;;4955055;28;20440;-71
2023/03/22 14:27:34;;;;;;;0.80;0.80;;;21.50;59.50;;;;;;4950583;28;20733;-72
2023/03/22 14:30:00;;;;;;;2.10;1.10;;;21.40;60.80;;;;;;4936462;29;20412;-72
2023/03/22 14:32:28;;;;;;;0.70;0.70;;;21.30;61.20;;;;;;4955082;28;20765;-74
2023/03/22 14:35:02;;;;;;;2.60;1.03;;;21.20;61.30;;;;;;4953644;28;20295;-73
2023/03/22 14:37:29;;;;;;;0.80;0.80;;;21.10;61.60;;;;;;4954269;29;20428;-73
2023/03/22 14:39:54;;;;;;;1.10;1.10;;;21.10;61.70;;;;;;4955213;28;20819;-72
2023/03/22 14:42:29;;;;;;;0.87;0.87;;;21.10;62.30;;;;;;4950625;28;20426;-75
2023/03/22 14:44:58;;;;;;;0.70;0.60;;;21.10;60.20;;;;;;4942875;29;20203;-72
2023/03/22 14:47:32;;;;;;;0.80;0.80;;;21.10;60.00;;;;;;4955448;28;20418;-75
2023/03/22 14:50:06;;;;;;;0.90;0.90;;;21.00;60.20;;;;;;4953156;28;20479;-74
2023/03/22 14:52:34;;;;;;;0.70;0.70;;;21.00;60.40;;;;;;4954732;28;20432;-74
2023/03/22 14:55:03;;;;;;;1.30;1.20;;;21.00;60.00;;;;;;4954159;28;20471;-74
2023/03/22 14:57:36;;;;;;;1.43;0.97;;;20.90;60.00;;;;;;4952332;28;20870;-74
2023/03/22 15:00:10;;;;;;;1.10;1.00;;;20.90;60.60;;;;;;4944813;29;20395;-73
2023/03/22 15:02:46;;;;;;;1.30;1.30;;;20.90;60.10;;;;;;4954982;28;20937;-71
2023/03/22 15:05:16;;;;;;;1.20;1.20;;;20.80;60.90;;;;;;4946119;28;20452;-72
2023/03/22 15:07:44;;;;;;;1.43;1.33;;;20.60;61.50;;;;;;4955255;28;20873;-73
2023/03/22 15:10:17;;;;;;;1.10;1.10;;;20.60;61.20;;;;;;4967737;28;20817;-71
2023/03/22 15:12:46;;;;;;;1.20;1.17;;;20.60;61.30;;;;;;4952505;28;20436;-73
2023/03/22 15:15:12;;;;;;;0.77;0.77;;;20.60;61.50;;;;;;4954331;28;20910;-67
2023/03/22 15:17:39;;;;;;;1.00;0.80;;;20.60;62.30;;;;;;4954493;28;20427;-69
2023/03/22 15:20:06;;;;;;;1.53;1.43;;;20.50;62.10;;;;;;4953683;28;20433;-68
2023/03/22 15:22:32;;;;;;;0.83;0.77;;;20.50;61.60;;;;;;4954233;29;20786;-70
2023/03/22 15:25:03;;;;;;;1.90;1.03;;;20.40;62.00;;;;;;4951868;28;20449;-69
2023/03/22 15:27:30;;;;;;;1.80;1.20;;;20.40;62.40;;;;;;4954588;28;20185;-68
2023/03/22 15:29:56;;;;;;;1.33;1.23;;;20.30;62.80;;;;;;4948469;28;20428;-70
2023/03/22 15:32:24;;;;;;;2.27;2.07;;;20.20;62.80;;;;;;4953914;28;21553;-69
2023/03/22 15:34:54;;;;;;;1.23;1.20;;;20.10;62.90;;;;;;4954180;28;20478;-70
2023/03/22 15:37:32;;;;;;;1.40;1.30;;;20.10;63.00;;;;;;4952386;28;20400;-68
2023/03/22 15:40:00;;;;;;;0.70;0.70;;;20.00;63.20;;;;;;4944952;29;20427;-70
2023/03/22 15:42:36;;;;;;;0.77;0.77;;;20.00;63.50;;;;;;4954344;28;20445;-68
2023/03/22 15:45:11;;;;;;;1.00;1.00;;;19.80;63.70;;;;;;4949810;29;20941;-72
2023/03/22 15:47:51;;;;;;;0.67;0.57;;;19.80;64.70;;;;;;4956456;29;20557;-68
2023/03/22 15:50:19;;;;;;;0.90;0.90;;;19.70;66.00;;;;;;4942831;29;20787;-68
2023/03/22 15:52:50;;;;;;;4.00;0.80;;;19.60;66.20;;;;;;4956513;28;20420;-69
2023/03/22 15:55:18;;;;;;;1.17;1.07;;;19.50;66.20;;;;;;4957355;28;21009;-69
2023/03/22 15:57:55;;;;;;;1.23;1.20;;;19.40;66.80;;;;;;4957685;28;20420;-67
2023/03/22 16:00:28;;;;;;;3.40;1.60;;;19.30;66.70;;;;;;4954857;28;20424;-67
2023/03/22 16:02:56;;;;;;;1.67;1.57;;;19.20;68.00;;;;;;4949262;29;20755;-70
2023/03/22 16:05:23;;;;;;;1.40;1.30;;;19.10;68.20;;;;;;4957653;28;20452;-67
2023/03/22 16:07:49;;;;;;;1.40;1.30;;;19.00;68.70;;;;;;4957320;28;20461;-69
2023/03/22 16:10:20;;;;;;;1.23;1.23;;;19.00;68.40;;;;;;4952468;28;20470;-68
2023/03/22 16:12:47;;;;;;;1.00;1.00;;;18.90;68.60;;;;;;4948360;29;20432;-67
2023/03/22 16:15:21;;;;;;;0.77;0.77;;;18.90;69.30;;;;;;4957214;28;20558;-69
2023/03/22 16:17:47;;;;;;;1.60;1.50;;;18.80;69.10;;;;;;4957596;28;20534;-68
2023/03/22 16:20:14;;;;;;;0.80;0.80;;;18.70;69.30;;;;;;4957640;28;20775;-71
2023/03/22 16:22:42;;;;;;;1.23;1.13;;;18.70;69.40;;;;;;4957199;28;20417;-67
2023/03/22 16:25:18;;;;;;;1.37;1.27;;;18.70;69.60;;;;;;4955234;28;20450;-73
2023/03/22 16:27:44;;;;;;;2.30;1.00;;;18.70;69.30;;;;;;4956481;28;20564;-71
2023/03/22 16:30:12;;;;;;;0.87;0.87;;;18.60;69.20;;;;;;4956893;28;20428;-70
2023/03/22 16:32:38;;;;;;;1.13;1.13;;;18.60;69.20;;;;;;4956707;28;20431;-70
2023/03/22 16:35:04;;;;;;;1.10;1.00;;;18.50;69.30;;;;;;4953708;29;20805;-71
2023/03/22 16:37:33;;;;;;;1.23;1.10;;;18.50;70.00;;;;;;4956316;28;20235;-72
2023/03/22 16:39:59;;;;;;;1.43;1.33;;;18.40;70.50;;;;;;4956824;28;20434;-70
2023/03/22 16:42:25;;;;;;;2.40;1.30;;;18.30;69.70;;;;;;4956737;28;20793;-72
2023/03/22 16:44:52;;;;;;;1.33;1.23;;;18.20;69.90;;;;;;4954656;28;20675;-71
2023/03/22 16:47:25;;;;;;;2.03;1.50;;;18.10;70.40;;;;;;4953806;29;20587;-74
2023/03/22 16:49:52;;;;;;;0.90;0.90;;;18.00;70.50;;;;;;4956678;28;20425;-70
2023/03/22 16:52:23;;;;;;;1.10;1.10;;;17.90;69.60;;;;;;4956657;28;20458;-73
2023/03/22 16:54:51;;;;;;;1.33;1.23;;;17.80;70.10;;;;;;4955053;28;20905;-70
2023/03/22 16:57:19;;;;;;;2.67;2.47;;;17.70;70.20;;;;;;4956890;28;20469;-71
2023/03/22 16:59:46;;;;;;;1.80;1.70;;;17.70;70.90;;;;;;4956290;28;20429;-72
2023/03/22 17:02:24;;;;;;;1.33;1.07;;;17.60;71.20;;;;;;4956535;28;20422;-70
2023/03/22 17:04:49;;;;;;;1.40;1.30;;;17.50;71.40;;;;;;4954718;28;20454;-73
2023/03/22 17:07:20;;;;;;;1.43;1.30;;;17.50;71.60;;;;;;4956228;28;20446;-66
2023/03/22 17:09:46;;;;;;;1.23;1.13;;;17.40;72.20;;;;;;4943682;28;20239;-72
2023/03/22 17:12:20;;;;;;;1.80;1.43;;;17.30;73.50;;;;;;4938597;29;20495;-70
2023/03/22 17:14:47;;;;;;;2.57;1.50;;;17.20;73.40;;;;;;4956057;28;20225;-73
2023/03/22 17:17:13;;;;;;;1.37;1.30;;;17.10;73.70;;;;;;4953674;29;20521;-75
2023/03/22 17:19:39;;;;;;;1.50;1.40;;;17.00;73.90;;;;;;4953326;29;20453;-71
2023/03/22 17:22:07;;;;;;;2.10;1.93;;;16.90;74.00;;;;;;4956246;28;20471;-72
2023/03/22 17:24:35;;;;;;;3.33;1.63;;;16.90;74.50;;;;;;4955815;28;20809;-76
2023/03/22 17:27:01;;;;;;;2.53;2.13;;;16.80;75.70;;;;;;4956014;28;20421;-72
2023/03/22 17:29:27;;;;;;;2.10;1.70;;;16.70;75.30;;;;;;4956220;28;20461;-73
2023/03/22 17:31:53;;;;;;;1.23;1.23;;;16.50;75.60;;;;;;4954347;28;20428;-74
2023/03/22 17:34:18;;;;;;;1.73;1.53;;;16.50;76.00;;;;;;4938024;29;20239;-73
2023/03/22 17:36:44;;;;;;;3.30;1.87;;;16.40;76.70;;;;;;4954865;28;20535;-75
2023/03/22 17:39:10;;;;;;;2.30;2.10;;;16.30;76.60;;;;;;4940028;29;20273;-75
2023/03/22 17:41:36;;;;;;;2.90;2.70;;;16.20;77.30;;;;;;4955757;29;20424;-74
2023/03/22 17:44:01;;;;;;;3.07;2.77;;;16.10;77.70;;;;;;4955412;28;20212;-73
2023/03/22 17:46:28;;;;;;;5.60;2.87;;;16.00;78.60;;;;;;4953943;28;20229;-73
2023/03/22 17:48:54;;;;;;;4.47;3.07;;;15.90;79.00;;;;;;4955339;28;20694;-74
2023/03/22 17:51:20;;;;;;;5.10;3.57;;;15.80;79.10;;;;;;4955041;29;20420;-73
2023/03/22 17:53:46;;;;;;;1.53;1.43;;;15.70;79.40;;;;;;4955310;28;20436;-80
2023/03/22 17:56:11;;;;;;;3.40;2.70;;;15.60;79.50;;;;;;4956258;28;20423;-76
2023/03/22 17:58:37;;;;;;;3.57;2.70;;;15.60;80.20;;;;;;4954231;28;20662;-75
2023/03/22 18:01:03;;;;;;;1.77;1.67;;;15.60;80.60;;;;;;4954017;28;20181;-76
2023/03/22 18:03:29;;;;;;;2.77;1.97;;;15.50;81.60;;;;;;4954798;28;21930;-77
2023/03/22 18:05:55;;;;;;;1.33;1.23;;;15.50;81.20;;;;;;4943973;28;20878;-76
2023/03/22 18:08:21;;;;;;;4.03;3.70;;;15.50;81.90;;;;;;4949082;29;20518;-74